createdAt,value
2023-05-14T00:01:46.148Z,5.7
2023-05-14T00:04:26.835Z,5.6
2023-05-14T00:06:57.741Z,5.5
2023-05-14T00:09:28.315Z,5.4
2023-05-14T00:11:58.873Z,5.3
2023-05-14T00:14:29.440Z,5.2
2023-05-14T00:19:40.025Z,5.5
2023-05-14T00:22:10.618Z,5.5
2023-05-14T00:24:41.200Z,5.5
2023-05-14T00:27:11.777Z,5.4
2023-05-14T00:29:42.352Z,5.4
2023-05-14T00:32:22.947Z,5.3
2023-05-14T00:34:53.639Z,5.2
2023-05-14T00:37:24.215Z,5.2
2023-05-14T00:39:54.782Z,5.2
2023-05-14T00:42:25.329Z,5.2
2023-05-14T00:44:55.880Z,5.4
2023-05-14T00:47:36.474Z,5.4
2023-05-14T00:50:07.186Z,5.4
2023-05-14T00:52:37.766Z,5.5
2023-05-14T00:55:08.377Z,5.6
2023-05-14T01:00:19.378Z,5.8
2023-05-14T01:03:00.028Z,5.9
2023-05-14T01:05:21.099Z,6.0
2023-05-14T01:08:01.634Z,6.0
2023-05-14T01:10:32.180Z,6.0
2023-05-14T01:13:02.731Z,6.1
2023-05-14T01:15:33.354Z,6.1
2023-05-14T01:18:13.946Z,6.2
2023-05-14T01:20:44.709Z,6.3
2023-05-14T01:23:15.265Z,6.4
2023-05-14T01:25:45.824Z,6.5
2023-05-14T01:28:16.383Z,6.6
2023-05-14T01:30:46.969Z,6.6
2023-05-14T01:33:27.540Z,6.7
2023-05-14T01:35:58.176Z,6.8
2023-05-14T01:40:58.728Z,6.8
2023-05-14T01:43:29.349Z,6.9
2023-05-14T01:46:09.980Z,6.9
2023-05-14T01:48:40.738Z,6.9
2023-05-14T01:51:11.292Z,6.9
2023-05-14T01:53:41.840Z,6.9
2023-05-14T01:56:12.422Z,6.9
2023-05-14T01:58:42.977Z,6.9
2023-05-14T02:01:23.584Z,6.9
2023-05-14T02:03:54.467Z,7.0
2023-05-14T02:06:25.177Z,7.0
2023-05-14T02:08:55.729Z,7.0
2023-05-14T02:11:26.320Z,7.0
2023-05-14T02:13:56.904Z,7.0
2023-05-14T02:16:37.499Z,7.0
2023-05-14T02:21:38.080Z,7.1
2023-05-14T02:24:08.646Z,7.1
2023-05-14T02:26:39.347Z,7.2
2023-05-14T02:29:09.883Z,7.2
2023-05-14T02:31:50.562Z,7.2
2023-05-14T02:34:21.244Z,7.2
2023-05-14T02:36:51.971Z,7.2
2023-05-14T02:39:22.592Z,7.2
2023-05-14T02:41:53.180Z,7.2
2023-05-14T02:44:33.778Z,7.1
2023-05-14T02:47:04.388Z,7.0
2023-05-14T02:49:35.131Z,7.0
2023-05-14T02:52:05.700Z,7.0
2023-05-14T02:54:36.451Z,6.9
2023-05-14T02:57:07.020Z,6.8
2023-05-14T03:02:17.640Z,6.8
2023-05-14T03:04:49.895Z,6.8
2023-05-14T03:07:20.528Z,6.7
2023-05-14T03:09:51.076Z,6.7
2023-05-14T03:12:21.648Z,6.7
2023-05-14T03:15:02.233Z,6.7
2023-05-14T03:17:32.848Z,6.7
2023-05-14T03:20:03.650Z,6.6
2023-05-14T03:22:34.573Z,6.6
2023-05-14T03:25:05.192Z,6.6
2023-05-14T03:27:35.777Z,6.6
2023-05-14T03:30:16.349Z,6.6
2023-05-14T03:32:47.384Z,6.6
2023-05-14T03:35:18.096Z,6.6
2023-05-14T03:37:48.755Z,6.6
2023-05-14T03:42:49.302Z,6.6
2023-05-14T03:45:29.890Z,6.6
2023-05-14T03:50:40.450Z,6.5
2023-05-14T03:53:10.997Z,6.4
2023-05-14T03:55:41.588Z,6.4
2023-05-14T03:58:22.168Z,6.4
2023-05-14T04:00:52.752Z,6.4
2023-05-14T04:03:23.334Z,6.3
2023-05-14T04:05:54.208Z,6.3
2023-05-14T04:08:24.767Z,6.3
2023-05-14T04:10:55.377Z,6.3
2023-05-14T04:13:35.927Z,6.3
2023-05-14T04:16:06.537Z,6.4
2023-05-14T04:18:37.250Z,6.4
2023-05-14T04:23:37.927Z,6.7
2023-05-14T04:26:08.505Z,6.7
2023-05-14T04:28:49.068Z,6.8
2023-05-14T04:31:19.646Z,7.0
2023-05-14T04:33:50.406Z,7.2
2023-05-14T04:36:20.983Z,7.4
2023-05-14T04:38:51.527Z,7.5
2023-05-14T04:41:22.078Z,7.5
2023-05-14T04:44:02.627Z,7.2
2023-05-14T04:46:33.241Z,7.4
2023-05-14T04:49:03.873Z,7.4
2023-05-14T04:51:34.454Z,7.4
2023-05-14T04:54:05.063Z,7.2
2023-05-14T04:56:35.745Z,7.3
2023-05-14T04:59:16.327Z,7.4
2023-05-14T05:04:16.982Z,7.3
2023-05-14T05:06:47.630Z,7.2
2023-05-14T05:09:18.202Z,7.3
2023-05-14T05:11:58.782Z,7.3
2023-05-14T05:14:29.427Z,7.3
2023-05-14T05:17:00.003Z,7.3
2023-05-14T05:19:40.012Z,7.2
2023-05-14T05:22:03.086Z,7.2
2023-05-14T05:24:33.742Z,7.2
2023-05-14T05:27:14.286Z,7.2
2023-05-14T05:29:44.858Z,7.2
2023-05-14T05:32:15.394Z,7.2
2023-05-14T05:34:46.026Z,7.2
2023-05-14T05:37:16.581Z,7.1
2023-05-14T05:39:47.147Z,7.1
2023-05-14T05:44:57.925Z,7.3
2023-05-14T05:47:28.541Z,7.2
2023-05-14T05:49:59.281Z,7.2
2023-05-14T05:52:30.287Z,7.3
2023-05-14T05:55:00.897Z,7.4
2023-05-14T05:57:41.453Z,7.4
2023-05-14T06:00:12.006Z,7.4
2023-05-14T06:02:42.789Z,7.4
2023-05-14T06:05:13.696Z,7.5
2023-05-14T06:07:44.404Z,7.5
2023-05-14T06:10:15.020Z,7.6
2023-05-14T06:12:55.874Z,7.6
2023-05-14T06:15:26.458Z,7.7
2023-05-14T06:17:57.080Z,7.7
2023-05-14T06:20:27.770Z,7.8
2023-05-14T06:25:49.494Z,8.0
2023-05-14T06:28:11.136Z,8.1
2023-05-14T06:30:41.695Z,8.0
2023-05-14T06:33:12.234Z,8.1
2023-05-14T06:35:42.805Z,8.1
2023-05-14T06:40:53.366Z,8.1
2023-05-14T06:43:33.941Z,8.1
2023-05-14T06:46:04.494Z,8.0
2023-05-14T06:48:35.057Z,8.1
2023-05-14T06:50:58.327Z,8.1
2023-05-14T06:53:28.896Z,8.2
2023-05-14T06:56:09.494Z,8.3
2023-05-14T06:58:40.066Z,8.4
2023-05-14T07:01:10.694Z,8.4
2023-05-14T07:06:13.513Z,8.8
2023-05-14T07:08:44.187Z,8.8
2023-05-14T07:11:24.786Z,8.8
2023-05-14T07:13:55.345Z,8.9
2023-05-14T07:16:25.932Z,8.9
2023-05-14T07:18:56.670Z,8.9
2023-05-14T07:21:27.555Z,8.9
2023-05-14T07:24:08.096Z,9.1
2023-05-14T07:26:38.747Z,9.0
2023-05-14T07:29:09.475Z,9.0
2023-05-14T07:31:40.089Z,9.2
2023-05-14T07:34:10.715Z,9.3
2023-05-14T07:36:41.293Z,9.4
2023-05-14T07:39:21.880Z,9.4
2023-05-14T07:41:52.433Z,9.4
2023-05-14T07:47:02.082Z,9.6
2023-05-14T07:52:02.781Z,9.6
2023-05-14T07:54:43.313Z,9.8
2023-05-14T07:57:13.898Z,10.0
2023-05-14T07:59:44.456Z,10.2
2023-05-14T08:02:15.044Z,10.5
2023-05-14T08:04:45.885Z,10.9
2023-05-14T08:07:16.441Z,11.0
2023-05-14T08:09:56.991Z,10.9
2023-05-14T08:12:27.511Z,10.8
2023-05-14T08:14:58.052Z,10.8
2023-05-14T08:17:28.605Z,10.8
2023-05-14T08:19:59.276Z,10.8
2023-05-14T08:22:39.866Z,10.9
2023-05-14T08:27:40.419Z,11.2
2023-05-14T08:30:10.997Z,11.4
2023-05-14T08:32:41.850Z,11.6
2023-05-14T08:35:12.601Z,11.8
2023-05-14T08:37:53.167Z,11.7
2023-05-14T08:40:24.004Z,11.6
2023-05-14T08:42:54.705Z,11.5
2023-05-14T08:45:25.281Z,11.3
2023-05-14T08:47:55.887Z,11.3
2023-05-14T08:50:26.899Z,11.0
2023-05-14T08:53:07.774Z,11.1
2023-05-14T08:55:38.325Z,11.6
2023-05-14T08:58:08.851Z,12.1
2023-05-14T09:00:39.405Z,12.2
2023-05-14T09:03:10.053Z,12.4
2023-05-14T09:08:20.750Z,12.3
2023-05-14T09:10:51.438Z,12.6
2023-05-14T09:13:22.059Z,13.0
2023-05-14T09:15:52.703Z,13.2
2023-05-14T09:18:23.349Z,14.0
2023-05-14T09:21:04.058Z,14.1
2023-05-14T09:23:34.617Z,13.8
2023-05-14T09:26:05.174Z,13.9
2023-05-14T09:28:35.716Z,14.0
2023-05-14T09:31:06.308Z,13.8
2023-05-14T09:33:36.998Z,14.0
2023-05-14T09:36:17.573Z,13.7
2023-05-14T09:38:48.131Z,13.8
2023-05-14T09:41:18.707Z,13.6
2023-05-14T09:43:49.241Z,13.8
2023-05-14T09:48:59.860Z,13.8
2023-05-14T09:51:40.433Z,13.8
2023-05-14T09:54:11.034Z,13.8
2023-05-14T09:56:41.641Z,14.5
2023-05-14T09:59:03.717Z,14.2
2023-05-14T10:01:34.400Z,14.2
2023-05-14T10:04:05.387Z,14.1
2023-05-14T10:06:46.209Z,14.3
2023-05-14T10:09:16.750Z,14.0
2023-05-14T10:11:47.418Z,14.1
2023-05-14T10:14:18.230Z,13.9
2023-05-14T10:16:48.858Z,13.9
2023-05-14T10:19:19.659Z,14.1
2023-05-14T10:22:00.306Z,14.1
2023-05-14T10:24:40.892Z,14.1
2023-05-14T10:29:41.445Z,13.8
2023-05-14T10:32:11.989Z,14.0
2023-05-14T10:34:52.653Z,14.2
2023-05-14T10:37:23.261Z,14.0
2023-05-14T10:39:53.904Z,14.0
2023-05-14T10:42:24.503Z,14.0
2023-05-14T10:44:55.064Z,14.3
2023-05-14T10:47:25.656Z,14.4
2023-05-14T10:50:06.422Z,14.4
2023-05-14T10:52:37.197Z,14.1
2023-05-14T10:55:07.839Z,14.0
2023-05-14T10:57:38.410Z,14.0
2023-05-14T11:00:09.082Z,14.0
2023-05-14T11:02:39.773Z,14.1
2023-05-14T11:05:20.557Z,14.4
2023-05-14T11:10:21.217Z,14.9
2023-05-14T11:12:51.811Z,15.1
2023-05-14T11:15:22.423Z,15.3
2023-05-14T11:17:53.006Z,15.3
2023-05-14T11:20:33.820Z,15.3
2023-05-14T11:23:04.416Z,15.4
2023-05-14T11:25:35.016Z,15.5
2023-05-14T11:28:05.727Z,15.5
2023-05-14T11:30:36.313Z,15.3
2023-05-14T11:33:16.933Z,15.6
2023-05-14T11:35:47.573Z,15.6
2023-05-14T11:38:18.111Z,15.5
2023-05-14T11:40:48.691Z,15.6
2023-05-14T11:43:19.246Z,15.6
2023-05-14T11:45:49.992Z,15.8
2023-05-14T11:53:30.761Z,15.8
2023-05-14T11:58:31.354Z,15.8
2023-05-14T12:01:01.912Z,15.6
2023-05-14T12:03:42.591Z,15.7
2023-05-14T12:06:13.646Z,15.7
2023-05-14T12:08:44.223Z,15.7
2023-05-14T12:11:14.791Z,15.8
2023-05-14T12:13:45.337Z,15.8
2023-05-14T12:16:15.932Z,15.6
2023-05-14T12:18:58.771Z,15.5
2023-05-14T12:21:29.530Z,15.3
2023-05-14T12:24:00.120Z,15.2
2023-05-14T12:26:30.764Z,15.2
2023-05-14T12:31:31.347Z,15.1
2023-05-14T12:34:12.061Z,15.1
2023-05-14T12:36:42.625Z,15.1
2023-05-14T12:39:13.173Z,15.1
2023-05-14T12:41:43.769Z,15.0
2023-05-14T12:44:14.348Z,14.9
2023-05-14T12:46:54.994Z,14.8
2023-05-14T12:49:25.726Z,14.8
2023-05-14T12:52:03.406Z,14.9
2023-05-14T12:54:27.211Z,14.9
2023-05-14T12:56:57.835Z,14.2
2023-05-14T12:59:28.443Z,13.5
2023-05-14T13:02:18.989Z,13.4
2023-05-14T13:04:43.783Z,13.1
2023-05-14T13:07:14.417Z,13.0
2023-05-14T13:12:15.033Z,12.8
2023-05-14T13:14:45.603Z,12.4
2023-05-14T13:17:26.196Z,12.1
2023-05-14T13:19:56.901Z,12.0
2023-05-14T13:22:27.463Z,11.9
2023-05-14T13:24:58.046Z,11.7
2023-05-14T13:27:28.618Z,11.7
2023-05-14T13:29:59.218Z,11.8
2023-05-14T13:32:42.132Z,12.0
2023-05-14T13:35:12.960Z,12.1
2023-05-14T13:37:43.823Z,12.3
2023-05-14T13:40:14.478Z,12.4
2023-05-14T13:42:45.054Z,12.5
2023-05-14T13:45:15.626Z,12.6
2023-05-14T13:47:56.577Z,12.8
2023-05-14T13:52:57.410Z,12.9
2023-05-14T13:55:27.962Z,13.0
2023-05-14T13:57:59.617Z,13.2
2023-05-14T14:00:40.205Z,13.1
2023-05-14T14:03:10.786Z,13.3
2023-05-14T14:05:41.408Z,13.5
2023-05-14T14:08:22.441Z,13.7
2023-05-14T14:10:44.013Z,14.5
2023-05-14T14:13:14.571Z,14.8
2023-05-14T14:15:55.159Z,15.1
2023-05-14T14:18:25.872Z,15.3
2023-05-14T14:20:56.633Z,15.3
2023-05-14T14:23:27.187Z,15.4
2023-05-14T14:25:57.760Z,15.3
2023-05-14T14:28:28.328Z,15.7
2023-05-14T14:33:38.900Z,16.7
2023-05-14T14:36:09.512Z,16.9
2023-05-14T14:38:40.060Z,16.6
2023-05-14T14:41:10.618Z,15.8
2023-05-14T14:43:41.192Z,14.4
2023-05-14T14:46:21.796Z,13.3
2023-05-14T14:48:52.516Z,12.4
2023-05-14T14:51:23.081Z,11.8
2023-05-14T14:53:53.639Z,11.3
2023-05-14T14:56:24.283Z,11.1
2023-05-14T14:58:54.876Z,11.0
2023-05-14T15:01:45.517Z,10.7
2023-05-14T15:04:16.150Z,10.4
2023-05-14T15:06:46.745Z,10.4
2023-05-14T15:09:17.289Z,10.5
2023-05-14T15:14:27.928Z,10.7
2023-05-14T15:16:58.554Z,10.8
2023-05-14T15:19:29.298Z,10.8
2023-05-14T15:21:59.863Z,10.7
2023-05-14T15:24:30.445Z,10.4
2023-05-14T15:27:00.988Z,10.5
2023-05-14T15:29:41.563Z,10.5
2023-05-14T15:32:12.185Z,10.4
2023-05-14T15:34:42.781Z,10.4
2023-05-14T15:37:13.385Z,10.4
2023-05-14T15:39:43.943Z,10.3
2023-05-14T15:42:14.597Z,10.2
2023-05-14T15:44:55.147Z,10.0
2023-05-14T15:47:25.832Z,9.9
2023-05-14T15:49:56.506Z,9.8
2023-05-14T15:54:57.068Z,9.3
2023-05-14T15:57:27.648Z,9.2
2023-05-14T16:00:08.288Z,9.2
2023-05-14T16:02:38.997Z,9.1
2023-05-14T16:05:10.007Z,9.1
2023-05-14T16:07:40.575Z,9.0
2023-05-14T16:10:11.152Z,8.8
2023-05-14T16:12:42.042Z,8.8
2023-05-14T16:15:22.704Z,8.6
2023-05-14T16:17:53.243Z,8.6
2023-05-14T16:20:24.007Z,8.5
2023-05-14T16:22:54.693Z,8.4
2023-05-14T16:25:25.259Z,8.4
2023-05-14T16:28:05.805Z,8.4
2023-05-14T16:30:36.357Z,8.5
2023-05-14T16:35:36.909Z,8.4
2023-05-14T16:38:07.475Z,8.4
2023-05-14T16:40:38.078Z,8.6
2023-05-14T16:43:18.621Z,8.4
2023-05-14T16:45:49.202Z,8.6
2023-05-14T16:48:19.777Z,8.6
2023-05-14T16:50:50.354Z,8.6
2023-05-14T16:53:20.928Z,8.6
2023-05-14T16:55:51.477Z,8.6
2023-05-14T16:58:32.058Z,8.7
2023-05-14T17:01:02.700Z,8.7
2023-05-14T17:03:33.434Z,8.7
2023-05-14T17:06:03.972Z,8.8
2023-05-14T17:08:34.525Z,8.9
2023-05-14T17:11:05.102Z,9.0
2023-05-14T17:16:25.697Z,9.2
2023-05-14T17:18:56.300Z,9.4
2023-05-14T17:21:27.104Z,9.7
2023-05-14T17:23:57.664Z,10.0
2023-05-14T17:26:38.226Z,10.0
2023-05-14T17:29:08.762Z,10.1
2023-05-14T17:31:39.327Z,10.1
2023-05-14T17:34:10.087Z,10.2
2023-05-14T17:36:40.710Z,10.5
2023-05-14T17:39:11.277Z,10.2
2023-05-14T17:41:51.851Z,9.9
2023-05-14T17:44:22.420Z,10.0
2023-05-14T17:46:53.009Z,10.0
2023-05-14T17:49:23.652Z,10.0
2023-05-14T17:51:54.292Z,10.1
2023-05-14T17:57:04.855Z,10.0
2023-05-14T17:59:35.402Z,9.8
2023-05-14T18:02:05.984Z,9.8
2023-05-14T18:04:36.602Z,9.6
2023-05-14T18:07:07.287Z,9.7
2023-05-14T18:09:37.911Z,9.4
2023-05-14T18:12:18.520Z,9.4
2023-05-14T18:14:49.144Z,9.2
2023-05-14T18:17:19.687Z,9.2
2023-05-14T18:19:50.402Z,9.2
2023-05-14T18:22:21.013Z,9.2
2023-05-14T18:24:51.613Z,9.1
2023-05-14T18:27:32.181Z,9.1
2023-05-14T18:30:02.735Z,9.0
2023-05-14T18:32:33.368Z,8.9
2023-05-14T18:37:34.250Z,8.7
2023-05-14T18:40:16.949Z,8.6
2023-05-14T18:42:48.408Z,8.5
2023-05-14T18:45:18.996Z,8.3
2023-05-14T18:47:49.596Z,8.1
2023-05-14T18:50:20.362Z,8.1
2023-05-14T18:52:51.160Z,8.1
2023-05-14T18:55:31.755Z,8.0
2023-05-14T18:58:02.307Z,7.9
2023-05-14T19:00:32.944Z,7.8
2023-05-14T19:03:03.566Z,7.8
2023-05-14T19:05:34.503Z,7.6
2023-05-14T19:08:05.050Z,7.5
2023-05-14T19:10:45.698Z,7.6
2023-05-14T19:13:16.251Z,7.5
2023-05-14T19:18:16.802Z,7.3
2023-05-14T19:20:47.517Z,7.2
2023-05-14T19:23:18.073Z,7.1
2023-05-14T19:25:58.616Z,7.0
2023-05-14T19:28:29.175Z,6.9
2023-05-14T19:30:59.792Z,7.0
2023-05-14T19:33:30.458Z,6.9
2023-05-14T19:36:01.050Z,6.8
2023-05-14T19:38:41.606Z,6.8
2023-05-14T19:41:12.171Z,6.6
2023-05-14T19:43:42.733Z,6.5
2023-05-14T19:46:13.320Z,6.4
2023-05-14T19:48:43.967Z,6.3
2023-05-14T19:51:14.524Z,6.1
2023-05-14T19:53:55.092Z,6.1
2023-05-14T19:59:05.660Z,6.1
2023-05-14T20:01:36.323Z,6.1
2023-05-14T20:04:06.929Z,6.1
2023-05-14T20:06:37.503Z,6.1
2023-05-14T20:09:18.160Z,6.1
2023-05-14T20:11:48.780Z,6.0
2023-05-14T20:14:19.357Z,6.0
2023-05-14T20:16:50.000Z,6.0
2023-05-14T20:19:21.416Z,6.0
2023-05-14T20:21:52.151Z,6.0
2023-05-14T20:24:32.717Z,6.0
2023-05-14T20:27:03.284Z,6.0
2023-05-14T20:29:33.872Z,5.9
2023-05-14T20:32:04.497Z,5.9
2023-05-14T20:34:35.419Z,6.0
2023-05-14T20:39:46.025Z,6.0
2023-05-14T20:42:16.885Z,6.0
2023-05-14T20:44:47.458Z,6.0
2023-05-14T20:47:18.003Z,6.0
2023-05-14T20:49:48.634Z,6.1
2023-05-14T20:52:29.220Z,5.9
2023-05-14T20:55:01.684Z,5.6
2023-05-14T20:57:32.822Z,5.6
2023-05-14T21:00:04.061Z,5.6
2023-05-14T21:02:34.727Z,5.6
2023-05-14T21:05:05.612Z,5.7
2023-05-14T21:07:46.640Z,5.8
2023-05-14T21:10:17.211Z,5.9
2023-05-14T21:12:47.867Z,5.9
2023-05-14T21:15:18.446Z,5.9
2023-05-14T21:20:19.010Z,6.2
2023-05-14T21:22:59.548Z,6.4
2023-05-14T21:25:30.114Z,6.4
2023-05-14T21:28:00.708Z,6.4
2023-05-14T21:30:31.322Z,6.4
2023-05-14T21:33:01.918Z,6.3
2023-05-14T21:35:32.541Z,6.2
2023-05-14T21:38:13.095Z,6.2
2023-05-14T21:40:43.722Z,6.3
2023-05-14T21:43:14.316Z,6.3
2023-05-14T21:45:44.890Z,6.4
2023-05-14T21:48:15.498Z,6.3
2023-05-14T21:50:46.400Z,6.3
2023-05-14T21:53:26.967Z,6.3
2023-05-14T21:55:57.542Z,6.2
2023-05-14T22:00:58.168Z,6.0
2023-05-14T22:03:28.867Z,6.0
2023-05-14T22:06:09.544Z,6.0
2023-05-14T22:08:40.113Z,6.0
2023-05-14T22:11:10.658Z,6.1
2023-05-14T22:13:41.255Z,6.1
2023-05-14T22:18:41.861Z,6.2
2023-05-14T22:21:23.769Z,6.2
2023-05-14T22:23:54.312Z,6.2
2023-05-14T22:26:24.899Z,6.2
2023-05-14T22:28:55.452Z,6.3
2023-05-14T22:31:26.034Z,6.3
2023-05-14T22:33:56.685Z,6.3
2023-05-14T22:36:37.235Z,6.3
2023-05-14T22:41:37.836Z,6.4
2023-05-14T22:44:08.409Z,6.4
2023-05-14T22:46:40.312Z,6.4
2023-05-14T22:49:11.087Z,6.4
2023-05-14T22:51:51.728Z,6.4
2023-05-14T22:54:22.296Z,6.4
2023-05-14T22:56:52.891Z,6.4
2023-05-14T22:59:23.978Z,6.4
2023-05-14T23:01:54.733Z,6.4
2023-05-14T23:04:25.565Z,6.4
2023-05-14T23:07:06.233Z,6.3
2023-05-14T23:09:36.799Z,6.2
2023-05-14T23:12:07.343Z,6.2
2023-05-14T23:14:37.915Z,6.3
2023-05-14T23:17:08.483Z,6.4
2023-05-14T23:22:19.152Z,6.3
2023-05-14T23:24:49.711Z,6.3
2023-05-14T23:27:20.271Z,6.3
2023-05-14T23:30:00.829Z,6.4
2023-05-14T23:32:31.470Z,6.4
2023-05-14T23:35:12.392Z,6.4
2023-05-14T23:37:33.345Z,6.4
2023-05-14T23:40:13.920Z,6.4
2023-05-14T23:42:44.499Z,6.4
2023-05-14T23:45:15.054Z,6.4
2023-05-14T23:47:46.072Z,6.4
2023-05-14T23:50:26.878Z,6.4
2023-05-14T23:52:57.442Z,6.4
2023-05-14T23:57:58.105Z,6.4
